Time;durP1;ratioP1;P1;durP2;ratioP2;P2;SDS_P1;SDS_P2;PMS_P1;PMS_P2;Temp;Humidity;BMP_temperature;BMP_pressure;BME280_temperature;BME280_humidity;BME280_pressure;Samples;Min_cycle;Max_cycle;Signal;HPM_P1;HPM_P2
2022/05/26 00:00:10;;;;;;;4.20;3.27;;;14.40;99.90;;;;;;4939071;28;20885;-70
2022/05/26 00:02:40;;;;;;;7.97;3.87;;;14.40;99.90;;;;;;4904402;28;1021645;-70
2022/05/26 00:05:08;;;;;;;3.17;2.90;;;14.50;99.90;;;;;;4939911;29;20438;-70
2022/05/26 00:07:37;;;;;;;6.37;3.23;;;14.50;99.90;;;;;;4940329;28;20476;-70
2022/05/26 00:10:06;;;;;;;8.80;4.37;;;14.50;99.90;;;;;;4940131;29;20440;-70
2022/05/26 00:12:34;;;;;;;3.63;3.40;;;14.50;99.90;;;;;;4939567;29;20760;-70
2022/05/26 00:15:02;;;;;;;5.27;3.90;;;14.50;99.90;;;;;;4939590;28;20760;-70
2022/05/26 00:17:29;;;;;;;4.53;3.67;;;14.50;99.90;;;;;;4939735;29;20933;-70
2022/05/26 00:19:59;;;;;;;5.17;4.47;;;14.60;99.90;;;;;;4939903;28;20445;-69
2022/05/26 00:22:27;;;;;;;4.70;4.40;;;14.60;99.90;;;;;;4944116;29;20875;-69
2022/05/26 00:24:55;;;;;;;5.33;3.60;;;14.50;99.90;;;;;;4944220;29;20445;-69
2022/05/26 00:27:23;;;;;;;5.10;4.60;;;14.60;99.90;;;;;;4943383;29;20693;-69
2022/05/26 00:29:51;;;;;;;4.87;4.47;;;14.60;99.90;;;;;;4943488;29;20441;-69
2022/05/26 00:32:19;;;;;;;5.77;5.37;;;14.60;99.90;;;;;;4943233;29;20465;-69
2022/05/26 00:34:47;;;;;;;5.40;4.37;;;14.60;99.90;;;;;;4943298;29;20841;-69
2022/05/26 00:37:16;;;;;;;4.80;4.40;;;14.60;99.90;;;;;;4943168;28;20448;-69
2022/05/26 00:39:44;;;;;;;5.50;4.93;;;14.70;99.90;;;;;;4942995;29;20590;-69
2022/05/26 00:42:14;;;;;;;5.03;4.43;;;14.70;99.90;;;;;;4943318;28;20511;-69
2022/05/26 00:44:42;;;;;;;5.73;5.23;;;14.70;99.90;;;;;;4943326;29;20441;-69
2022/05/26 00:47:16;;;;;;;8.43;4.83;;;14.70;99.90;;;;;;4943130;29;20480;-69
2022/05/26 00:49:49;;;;;;;5.90;5.33;;;14.70;99.90;;;;;;4943034;29;20970;-69
2022/05/26 00:52:24;;;;;;;5.83;5.47;;;14.80;99.90;;;;;;4942935;29;20753;-69
2022/05/26 00:54:55;;;;;;;7.60;5.40;;;14.80;99.90;;;;;;4943346;29;20454;-69
2022/05/26 00:57:28;;;;;;;6.80;5.47;;;14.80;99.90;;;;;;4942980;29;20433;-69
2022/05/26 00:59:59;;;;;;;6.40;5.17;;;14.80;99.90;;;;;;4943077;29;20449;-69
2022/05/26 01:02:32;;;;;;;8.03;5.10;;;14.80;99.90;;;;;;4942794;28;20976;-69
2022/05/26 01:05:07;;;;;;;6.43;5.87;;;14.80;99.90;;;;;;4942936;29;20618;-69
2022/05/26 01:07:38;;;;;;;6.17;4.77;;;14.80;99.90;;;;;;4943175;29;20761;-70
2022/05/26 01:10:08;;;;;;;5.63;5.23;;;14.90;99.90;;;;;;4942419;29;20441;-69
2022/05/26 01:12:36;;;;;;;7.63;6.07;;;15.00;99.90;;;;;;4943022;29;20515;-69
2022/05/26 01:15:07;;;;;;;6.63;6.00;;;15.00;99.90;;;;;;4942322;29;21074;-70
2022/05/26 01:17:46;;;;;;;5.30;4.80;;;14.90;99.90;;;;;;4942628;29;20441;-69
2022/05/26 01:20:39;;;;;;;5.90;5.40;;;15.00;99.90;;;;;;4942772;29;20606;-69
2022/05/26 01:23:42;;;;;;;7.03;6.10;;;15.00;99.90;;;;;;4942623;29;20449;-69
2022/05/26 01:26:49;;;;;;;7.20;5.80;;;14.90;99.90;;;;;;4942470;28;20513;-69
2022/05/26 01:30:05;;;;;;;5.50;5.00;;;14.90;99.90;;;;;;4942857;29;20444;-69
2022/05/26 01:32:50;;;;;;;6.10;5.70;;;14.90;99.90;;;;;;4942376;28;21068;-69
2022/05/26 01:35:25;;;;;;;6.83;5.60;;;14.90;99.90;;;;;;4942436;29;20816;-69
2022/05/26 01:38:03;;;;;;;5.83;5.30;;;14.90;99.90;;;;;;4942703;29;20588;-69
2022/05/26 01:40:42;;;;;;;6.70;6.10;;;14.80;99.90;;;;;;4942809;29;21090;-69
2022/05/26 01:43:16;;;;;;;6.00;5.57;;;14.80;99.90;;;;;;4942621;28;20455;-69
2022/05/26 01:45:51;;;;;;;12.20;6.60;;;14.80;99.90;;;;;;4942928;29;20468;-69
2022/05/26 01:48:27;;;;;;;6.67;5.30;;;14.80;99.90;;;;;;4942646;29;20484;-69
2022/05/26 01:51:01;;;;;;;8.93;6.67;;;14.90;99.90;;;;;;4942944;29;20998;-69
2022/05/26 01:53:38;;;;;;;8.33;5.40;;;14.80;99.90;;;;;;4942296;29;20921;-69
2022/05/26 01:56:13;;;;;;;7.27;6.57;;;14.80;99.90;;;;;;4942069;29;20717;-69
2022/05/26 01:58:44;;;;;;;6.90;6.07;;;14.80;99.90;;;;;;4942307;29;20433;-69
2022/05/26 02:01:16;;;;;;;6.03;5.63;;;14.80;99.90;;;;;;4942425;29;20471;-69
2022/05/26 02:03:49;;;;;;;6.20;5.70;;;14.80;99.90;;;;;;4942375;29;20847;-69
2022/05/26 02:06:22;;;;;;;6.80;6.00;;;14.80;99.90;;;;;;4942330;29;20858;-69
2022/05/26 02:08:55;;;;;;;8.07;6.90;;;14.80;99.90;;;;;;4942333;29;20571;-68
2022/05/26 02:11:23;;;;;;;7.27;6.57;;;14.80;99.90;;;;;;4942301;29;20461;-69
2022/05/26 02:13:56;;;;;;;7.30;6.13;;;14.70;99.90;;;;;;4942427;29;20441;-69
2022/05/26 02:16:41;;;;;;;5.67;5.17;;;14.80;99.90;;;;;;4941584;28;20456;-69
2022/05/26 02:19:15;;;;;;;5.20;4.70;;;14.80;99.90;;;;;;4942248;29;20548;-70
2022/05/26 02:21:47;;;;;;;5.40;4.90;;;14.90;99.90;;;;;;4941381;29;20545;-70
2022/05/26 02:24:18;;;;;;;7.03;6.50;;;15.00;99.90;;;;;;4941745;28;20445;-69
2022/05/26 02:26:46;;;;;;;10.00;6.40;;;15.00;99.90;;;;;;4941970;29;20925;-70
2022/05/26 02:32:05;;;;;;;8.13;7.33;;;15.00;99.90;;;;;;4925038;28;20469;-70
2022/05/26 02:34:35;;;;;;;10.27;6.53;;;15.00;99.90;;;;;;4941964;29;20458;-69
2022/05/26 02:37:04;;;;;;;11.43;6.87;;;15.00;99.90;;;;;;4941367;29;20640;-70
2022/05/26 02:39:32;;;;;;;6.50;5.90;;;15.00;99.90;;;;;;4942011;29;20440;-69
2022/05/26 02:42:00;;;;;;;7.90;6.90;;;15.00;99.90;;;;;;4941687;29;20493;-69
2022/05/26 02:44:31;;;;;;;7.80;6.93;;;15.00;99.90;;;;;;4940953;28;20440;-70
2022/05/26 02:47:14;;;;;;;6.93;6.23;;;14.90;99.90;;;;;;4940922;29;20447;-70
2022/05/26 02:49:57;;;;;;;7.17;6.47;;;15.00;99.90;;;;;;4941736;29;20528;-70
2022/05/26 02:52:31;;;;;;;7.90;7.10;;;15.00;99.90;;;;;;4941709;29;20464;-69
2022/05/26 02:55:12;;;;;;;7.83;6.90;;;15.00;99.90;;;;;;4941307;28;20447;-69
2022/05/26 02:57:50;;;;;;;10.13;7.40;;;15.10;99.90;;;;;;4941037;29;20429;-69
2022/05/26 03:00:23;;;;;;;8.63;7.73;;;15.00;99.90;;;;;;4940925;28;21150;-69
2022/05/26 03:02:57;;;;;;;12.53;7.80;;;15.00;99.90;;;;;;4941343;29;20452;-69
2022/05/26 03:05:31;;;;;;;9.73;8.43;;;15.00;99.90;;;;;;4941393;29;20436;-69
2022/05/26 03:08:02;;;;;;;8.07;7.13;;;15.00;99.90;;;;;;4940763;28;20480;-69
2022/05/26 03:10:32;;;;;;;8.00;6.37;;;15.00;99.90;;;;;;4941087;29;20800;-69
2022/05/26 03:13:01;;;;;;;9.73;6.70;;;15.10;99.90;;;;;;4941491;28;20441;-69
2022/05/26 03:15:29;;;;;;;7.17;6.20;;;15.10;99.90;;;;;;4940287;28;20467;-69
2022/05/26 03:17:58;;;;;;;8.27;6.90;;;15.10;99.90;;;;;;4940293;29;20483;-69
2022/05/26 03:20:27;;;;;;;8.10;6.73;;;15.10;99.90;;;;;;4939991;29;20611;-69
2022/05/26 03:22:56;;;;;;;9.93;6.77;;;15.10;99.90;;;;;;4940323;28;20483;-69
2022/05/26 03:25:24;;;;;;;10.13;7.73;;;15.10;99.90;;;;;;4940119;29;20706;-69
2022/05/26 03:27:51;;;;;;;10.20;7.37;;;15.10;99.90;;;;;;4940308;29;20444;-69
2022/05/26 03:30:19;;;;;;;12.63;7.67;;;15.10;99.90;;;;;;4940004;29;20728;-69
2022/05/26 03:32:47;;;;;;;7.20;6.20;;;15.10;99.90;;;;;;4940480;29;20522;-69
2022/05/26 03:40:51;;;;;;;8.00;7.20;;;15.00;99.90;;;;;;4940072;29;20514;-68
2022/05/26 03:43:20;;;;;;;10.10;6.80;;;14.90;99.90;;;;;;4940001;29;20444;-70
2022/05/26 03:45:49;;;;;;;8.73;6.80;;;15.00;99.90;;;;;;4939736;29;20536;-69
2022/05/26 03:48:17;;;;;;;8.80;7.17;;;15.00;99.90;;;;;;4940277;29;20569;-69
2022/05/26 03:50:44;;;;;;;14.00;8.00;;;15.00;99.90;;;;;;4940441;29;20471;-69
2022/05/26 03:53:13;;;;;;;8.77;7.87;;;14.90;99.90;;;;;;4940049;29;20481;-68
2022/05/26 03:55:41;;;;;;;10.33;7.30;;;14.80;99.90;;;;;;4939796;28;20440;-69
2022/05/26 03:58:10;;;;;;;11.83;7.97;;;14.80;99.90;;;;;;4939861;29;20445;-69
2022/05/26 04:00:38;;;;;;;9.97;7.17;;;14.80;99.90;;;;;;4939987;29;20459;-69
2022/05/26 04:03:06;;;;;;;9.10;6.30;;;14.80;99.90;;;;;;4940030;29;20464;-68
2022/05/26 04:05:34;;;;;;;9.10;7.73;;;14.90;99.90;;;;;;4939625;29;20433;-68
2022/05/26 04:08:02;;;;;;;10.30;7.70;;;15.00;99.90;;;;;;4939518;29;20717;-68
2022/05/26 04:10:31;;;;;;;6.90;6.30;;;15.10;99.90;;;;;;4939947;29;20470;-69
2022/05/26 04:12:59;;;;;;;9.43;7.20;;;15.10;99.90;;;;;;4940050;29;20441;-69
2022/05/26 04:15:26;;;;;;;9.17;7.00;;;15.20;99.90;;;;;;4939236;28;20477;-69
2022/05/26 04:17:54;;;;;;;12.93;7.70;;;15.20;99.90;;;;;;4939892;29;20455;-69
2022/05/26 04:20:23;;;;;;;9.97;7.13;;;15.30;99.90;;;;;;4939836;29;20485;-69
2022/05/26 04:22:51;;;;;;;7.67;7.00;;;15.40;99.90;;;;;;4940823;29;20936;-69
2022/05/26 04:25:22;;;;;;;6.93;6.30;;;15.40;99.90;;;;;;4940183;29;20459;-69
2022/05/26 04:27:53;;;;;;;8.17;6.30;;;15.40;99.90;;;;;;4940416;29;20508;-69
2022/05/26 04:30:22;;;;;;;5.67;5.07;;;15.50;99.90;;;;;;4940608;29;20620;-69
2022/05/26 04:32:50;;;;;;;13.73;7.60;;;15.50;99.90;;;;;;4940188;28;20445;-69
2022/05/26 04:35:18;;;;;;;7.17;6.00;;;15.50;99.90;;;;;;4940065;29;20555;-69
2022/05/26 04:37:46;;;;;;;8.80;6.40;;;15.40;99.90;;;;;;4939831;28;20963;-69
2022/05/26 04:40:15;;;;;;;10.30;6.23;;;15.30;99.90;;;;;;4939664;29;20484;-69
2022/05/26 04:42:42;;;;;;;10.40;7.20;;;15.30;99.90;;;;;;4939542;29;20460;-69
2022/05/26 04:45:13;;;;;;;8.90;6.10;;;15.30;99.90;;;;;;4939493;28;20444;-68
2022/05/26 04:47:42;;;;;;;8.37;5.17;;;15.40;99.90;;;;;;4939699;29;20448;-69
2022/05/26 04:50:11;;;;;;;5.90;5.30;;;15.40;99.90;;;;;;4940164;29;20491;-69
2022/05/26 04:52:39;;;;;;;8.53;5.53;;;15.40;99.90;;;;;;4940179;29;20461;-69
2022/05/26 04:55:08;;;;;;;10.60;5.63;;;15.40;99.90;;;;;;4940268;29;20448;-69
2022/05/26 04:57:36;;;;;;;8.43;5.47;;;15.40;99.90;;;;;;4939909;29;20928;-69
2022/05/26 05:00:07;;;;;;;7.17;4.77;;;15.50;99.90;;;;;;4939823;28;20441;-69
2022/05/26 05:02:36;;;;;;;8.60;5.37;;;15.50;99.90;;;;;;4940186;29;20475;-69
2022/05/26 05:05:04;;;;;;;7.90;5.70;;;15.50;99.90;;;;;;4940030;29;20743;-69
2022/05/26 05:07:33;;;;;;;5.70;4.73;;;15.60;99.90;;;;;;4941701;28;20733;-69
2022/05/26 05:10:01;;;;;;;6.33;4.60;;;15.60;99.90;;;;;;4943619;29;20492;-69
2022/05/26 05:12:29;;;;;;;10.70;5.37;;;15.60;99.90;;;;;;4942721;29;20636;-69
2022/05/26 05:14:57;;;;;;;4.63;4.10;;;15.60;99.90;;;;;;4942419;29;20448;-69
2022/05/26 05:17:26;;;;;;;8.57;5.30;;;15.70;99.90;;;;;;4942802;29;20449;-69
2022/05/26 05:19:55;;;;;;;11.50;5.27;;;15.70;99.90;;;;;;4942876;29;20809;-69
2022/05/26 05:22:28;;;;;;;4.63;4.17;;;15.70;99.90;;;;;;4942753;29;20503;-69
2022/05/26 05:24:59;;;;;;;6.27;4.33;;;15.80;99.90;;;;;;4942496;29;20440;-69
2022/05/26 05:27:31;;;;;;;6.97;4.80;;;15.80;99.90;;;;;;4942648;29;20742;-69
2022/05/26 05:30:02;;;;;;;7.80;3.53;;;15.80;99.90;;;;;;4942899;28;20779;-69
2022/05/26 05:32:34;;;;;;;9.03;4.47;;;15.80;99.90;;;;;;4942529;29;20824;-69
2022/05/26 05:35:08;;;;;;;8.00;5.20;;;15.90;99.90;;;;;;4942509;29;20452;-69
2022/05/26 05:37:36;;;;;;;10.90;4.70;;;15.80;99.90;;;;;;4942494;29;20444;-69
2022/05/26 05:40:06;;;;;;;7.97;4.23;;;15.70;99.90;;;;;;4942706;29;20514;-69
2022/05/26 05:42:34;;;;;;;8.00;3.40;;;15.60;99.90;;;;;;4942368;28;20499;-69
2022/05/26 05:45:02;;;;;;;6.80;4.03;;;15.50;99.90;;;;;;4942579;29;20871;-68
2022/05/26 05:47:30;;;;;;;7.80;5.03;;;15.60;99.90;;;;;;4942834;29;20445;-69
2022/05/26 05:49:58;;;;;;;20.40;5.30;;;15.70;99.90;;;;;;4942099;29;20488;-69
2022/05/26 05:52:29;;;;;;;6.93;4.43;;;15.70;99.90;;;;;;4942585;28;20758;-69
2022/05/26 05:54:57;;;;;;;9.43;5.23;;;15.60;99.90;;;;;;4941908;29;20459;-68
2022/05/26 05:57:26;;;;;;;10.97;4.50;;;15.50;99.90;;;;;;4942107;29;20652;-68
2022/05/26 05:59:55;;;;;;;8.13;4.00;;;15.50;99.90;;;;;;4942591;29;20967;-69
2022/05/26 06:02:23;;;;;;;5.90;3.63;;;15.50;99.90;;;;;;4942558;29;20871;-68
2022/05/26 06:05:00;;;;;;;8.27;3.50;;;15.50;99.90;;;;;;4941929;28;20487;-68
2022/05/26 06:07:30;;;;;;;7.37;4.00;;;15.50;99.90;;;;;;4941768;29;20484;-69
2022/05/26 06:09:57;;;;;;;11.10;4.87;;;15.60;99.90;;;;;;4941383;29;20714;-69
2022/05/26 06:12:26;;;;;;;5.17;3.43;;;15.70;99.90;;;;;;4941487;29;20460;-69
2022/05/26 06:14:54;;;;;;;10.27;3.67;;;15.80;99.90;;;;;;4941123;29;20440;-69
2022/05/26 06:17:22;;;;;;;7.60;3.47;;;15.80;99.90;;;;;;4941588;29;20510;-69
2022/05/26 06:19:49;;;;;;;7.20;3.27;;;15.80;99.90;;;;;;4939957;28;20448;-69
2022/05/26 06:22:20;;;;;;;6.23;3.40;;;15.80;99.90;;;;;;4941310;28;20477;-69
2022/05/26 06:24:50;;;;;;;6.73;3.00;;;15.80;99.90;;;;;;4941637;29;20445;-69
2022/05/26 06:30:08;;;;;;;7.40;2.40;;;16.00;99.90;;;;;;4941255;29;20482;-68
2022/05/26 06:38:15;;;;;;;4.80;2.50;;;16.60;99.90;;;;;;4941702;29;20524;-69
2022/05/26 06:40:44;;;;;;;5.87;3.30;;;16.80;99.90;;;;;;4941389;29;20564;-69
2022/05/26 06:43:14;;;;;;;5.20;2.60;;;16.80;99.90;;;;;;4941200;29;21247;-69
2022/05/26 06:45:43;;;;;;;7.13;2.80;;;16.90;99.90;;;;;;4941364;29;20531;-69
2022/05/26 06:48:11;;;;;;;5.23;2.67;;;16.90;99.90;;;;;;4941780;29;20853;-69
2022/05/26 06:50:39;;;;;;;5.80;3.20;;;16.90;99.90;;;;;;4941562;29;20869;-70
2022/05/26 06:53:08;;;;;;;6.07;3.10;;;16.90;99.90;;;;;;4941552;29;20609;-69
2022/05/26 06:55:36;;;;;;;5.83;2.60;;;16.80;99.90;;;;;;4940888;29;20947;-69
2022/05/26 06:58:05;;;;;;;4.60;2.70;;;16.70;99.90;;;;;;4940648;29;20937;-69
2022/05/26 07:00:33;;;;;;;4.30;2.20;;;16.60;99.90;;;;;;4940873;29;20441;-69
2022/05/26 07:03:01;;;;;;;2.47;2.20;;;16.50;99.90;;;;;;4940482;29;20836;-69
2022/05/26 07:05:29;;;;;;;6.60;2.37;;;16.40;99.90;;;;;;4940621;29;20457;-69
2022/05/26 07:07:57;;;;;;;5.67;2.50;;;16.40;99.90;;;;;;4940701;29;21078;-69
2022/05/26 07:10:25;;;;;;;6.00;2.87;;;16.30;99.90;;;;;;4940376;29;20476;-69
2022/05/26 07:12:53;;;;;;;8.37;3.20;;;16.40;99.90;;;;;;4940591;28;20441;-69
2022/05/26 07:15:22;;;;;;;7.43;2.13;;;16.60;99.90;;;;;;4940340;29;20945;-69
2022/05/26 07:17:50;;;;;;;5.70;2.20;;;16.80;99.90;;;;;;4941482;29;20437;-69
2022/05/26 07:20:18;;;;;;;3.53;2.60;;;16.90;99.90;;;;;;4940898;29;20480;-69
2022/05/26 07:22:46;;;;;;;7.33;2.40;;;16.90;99.90;;;;;;4941044;29;20461;-69
2022/05/26 07:25:14;;;;;;;6.50;2.40;;;17.00;99.90;;;;;;4940878;29;20453;-69
2022/05/26 07:27:42;;;;;;;4.77;1.73;;;16.90;99.90;;;;;;4940548;29;20480;-69
2022/05/26 07:30:11;;;;;;;4.10;1.50;;;16.80;99.90;;;;;;4939970;28;20477;-70
2022/05/26 07:32:40;;;;;;;4.77;1.37;;;16.80;99.90;;;;;;4940804;29;20461;-69
2022/05/26 07:35:10;;;;;;;2.23;1.07;;;16.80;99.90;;;;;;4941035;28;20449;-69
2022/05/26 07:43:16;;;;;;;5.73;1.90;;;17.20;99.90;;;;;;4940636;29;20535;-69
2022/05/26 07:45:45;;;;;;;2.60;1.50;;;17.10;99.90;;;;;;4940605;29;20851;-69
2022/05/26 07:48:14;;;;;;;4.43;1.23;;;17.10;99.90;;;;;;4940560;29;20472;-69
2022/05/26 07:50:42;;;;;;;3.17;1.20;;;17.00;99.90;;;;;;4940012;29;20743;-70
2022/05/26 07:53:11;;;;;;;3.03;1.27;;;17.10;99.90;;;;;;4940308;29;20567;-69
2022/05/26 07:55:42;;;;;;;1.57;0.87;;;17.20;99.90;;;;;;4940273;29;20463;-69
2022/05/26 07:58:10;;;;;;;4.80;1.10;;;17.40;99.90;;;;;;4940252;29;20445;-69
2022/05/26 08:00:39;;;;;;;6.73;1.53;;;17.50;99.90;;;;;;4939942;29;20527;-69
2022/05/26 08:03:07;;;;;;;3.20;1.13;;;17.50;99.90;;;;;;4939942;29;20717;-70
2022/05/26 08:05:37;;;;;;;6.30;1.27;;;17.40;99.90;;;;;;4939629;29;21000;-69
2022/05/26 08:08:06;;;;;;;3.20;1.00;;;17.50;99.90;;;;;;4940336;29;20441;-69
2022/05/26 08:10:34;;;;;;;4.33;0.80;;;17.50;99.90;;;;;;4939888;29;20725;-69
2022/05/26 08:13:02;;;;;;;1.57;1.20;;;17.50;99.90;;;;;;4939894;29;20945;-69
2022/05/26 08:15:31;;;;;;;3.50;1.27;;;17.50;99.90;;;;;;4939284;28;20520;-69
2022/05/26 08:17:59;;;;;;;3.43;1.27;;;17.60;99.90;;;;;;4939532;29;20815;-69
2022/05/26 08:20:27;;;;;;;1.57;1.03;;;17.60;99.90;;;;;;4939725;28;20614;-69
2022/05/26 08:22:56;;;;;;;2.90;1.30;;;17.60;99.90;;;;;;4940117;29;20644;-69
2022/05/26 08:25:26;;;;;;;4.57;0.90;;;17.50;99.90;;;;;;4939665;28;20445;-69
2022/05/26 08:27:54;;;;;;;2.53;1.47;;;17.50;99.90;;;;;;4939885;29;20736;-69
2022/05/26 08:30:24;;;;;;;3.53;1.20;;;17.80;99.90;;;;;;4940214;29;20465;-69
2022/05/26 08:32:54;;;;;;;4.33;0.87;;;18.00;99.90;;;;;;4940140;29;20639;-68
2022/05/26 08:35:23;;;;;;;1.97;0.73;;;17.90;99.90;;;;;;4939730;28;20656;-68
2022/05/26 08:37:52;;;;;;;2.70;0.97;;;17.90;99.90;;;;;;4939706;28;21086;-68
2022/05/26 08:40:33;;;;;;;3.63;1.33;;;17.90;99.90;;;;;;4939726;28;20447;-69
2022/05/26 08:43:03;;;;;;;4.27;1.10;;;17.90;99.90;;;;;;4942018;29;20556;-68
2022/05/26 08:45:33;;;;;;;4.00;0.70;;;17.90;99.90;;;;;;4943094;29;20457;-69
2022/05/26 08:48:02;;;;;;;2.90;1.30;;;17.80;99.90;;;;;;4943120;29;20544;-69
2022/05/26 08:50:34;;;;;;;1.90;0.90;;;17.80;99.90;;;;;;4942811;29;20814;-69
2022/05/26 08:53:07;;;;;;;4.20;1.23;;;17.90;99.90;;;;;;4943475;29;20494;-69
2022/05/26 08:55:43;;;;;;;3.43;1.17;;;18.00;99.90;;;;;;4942817;29;20447;-68
2022/05/26 08:58:14;;;;;;;1.57;0.93;;;18.00;99.90;;;;;;4943687;28;20441;-69
2022/05/26 09:00:46;;;;;;;7.10;1.30;;;18.00;99.90;;;;;;4943120;29;20465;-68
2022/05/26 09:03:24;;;;;;;2.03;1.23;;;18.20;99.90;;;;;;4943250;29;20829;-69
2022/05/26 09:05:59;;;;;;;1.80;0.77;;;18.30;99.90;;;;;;4942275;29;20840;-69
2022/05/26 09:14:27;;;;;;;2.50;1.13;;;18.40;99.90;;;;;;4882723;29;20548;-68
2022/05/26 09:16:59;;;;;;;2.13;1.20;;;18.20;99.90;;;;;;4882808;29;20992;-68
2022/05/26 09:19:32;;;;;;;1.63;0.83;;;18.30;99.90;;;;;;4914691;28;20447;-68
2022/05/26 09:22:00;;;;;;;2.47;1.33;;;18.30;99.90;;;;;;4942354;29;20466;-68
2022/05/26 09:24:39;;;;;;;2.10;0.77;;;18.40;99.90;;;;;;4942810;29;20473;-68
2022/05/26 09:27:25;;;;;;;1.67;1.00;;;18.50;99.90;;;;;;4942843;29;20447;-68
2022/05/26 09:29:53;;;;;;;4.07;1.00;;;18.60;99.90;;;;;;4942719;29;20984;-68
2022/05/26 09:32:31;;;;;;;4.63;0.97;;;18.70;99.90;;;;;;4942797;29;20681;-69
2022/05/26 09:35:05;;;;;;;3.50;0.97;;;18.60;99.90;;;;;;4942181;29;20447;-69
2022/05/26 09:37:40;;;;;;;4.73;0.80;;;18.50;99.90;;;;;;4942386;29;20978;-69
2022/05/26 09:40:17;;;;;;;2.33;1.20;;;18.50;99.90;;;;;;4943256;29;20480;-68
2022/05/26 09:42:51;;;;;;;3.53;0.90;;;18.40;99.90;;;;;;4943250;28;20484;-69
2022/05/26 09:45:20;;;;;;;1.47;0.70;;;18.30;99.90;;;;;;4942955;29;20537;-71
2022/05/26 09:47:53;;;;;;;3.03;0.80;;;18.20;99.90;;;;;;4942155;29;20442;-69
2022/05/26 09:50:45;;;;;;;2.00;1.30;;;18.20;99.90;;;;;;4942259;29;20482;-69
2022/05/26 09:53:15;;;;;;;2.67;0.90;;;18.30;99.90;;;;;;4941841;28;20487;-69
2022/05/26 09:55:47;;;;;;;1.00;0.70;;;18.30;99.90;;;;;;4941530;29;20451;-70
2022/05/26 09:58:28;;;;;;;2.00;1.00;;;18.30;99.90;;;;;;4942039;29;20600;-69
2022/05/26 10:00:58;;;;;;;4.60;1.03;;;18.30;99.90;;;;;;4941818;29;20457;-69
2022/05/26 10:03:34;;;;;;;3.70;0.90;;;18.20;99.90;;;;;;4941717;29;20845;-69
2022/05/26 10:06:25;;;;;;;3.83;0.93;;;18.20;99.90;;;;;;4941690;29;20447;-69
2022/05/26 10:09:05;;;;;;;2.47;1.07;;;18.30;99.90;;;;;;4941100;28;20447;-68
2022/05/26 10:11:45;;;;;;;4.80;1.00;;;18.40;99.90;;;;;;4941676;29;20486;-68
2022/05/26 10:14:31;;;;;;;6.37;0.90;;;18.40;99.90;;;;;;4941735;29;20441;-68
2022/05/26 10:17:07;;;;;;;3.87;1.00;;;18.50;99.90;;;;;;4941189;29;21099;-69
2022/05/26 10:20:02;;;;;;;2.23;0.90;;;18.50;99.90;;;;;;4941734;29;20459;-69
2022/05/26 10:22:42;;;;;;;4.23;1.40;;;18.40;99.90;;;;;;4941780;29;20492;-67
2022/05/26 10:25:32;;;;;;;3.23;0.90;;;18.40;99.90;;;;;;4941438;29;20652;-68
2022/05/26 10:28:18;;;;;;;3.20;0.97;;;18.40;99.90;;;;;;4932169;28;20456;-68
2022/05/26 10:30:59;;;;;;;4.70;2.10;;;18.40;99.90;;;;;;4942010;28;20471;-69
2022/05/26 10:33:44;;;;;;;3.17;1.03;;;18.50;99.90;;;;;;4942129;29;20597;-69
2022/05/26 10:36:21;;;;;;;2.70;1.03;;;18.80;99.90;;;;;;4940963;29;20448;-69
2022/05/26 10:39:02;;;;;;;2.50;1.00;;;18.90;99.90;;;;;;4941340;29;20444;-69
2022/05/26 10:41:35;;;;;;;1.70;0.60;;;19.00;99.90;;;;;;4941278;28;20480;-68
2022/05/26 10:44:11;;;;;;;2.93;1.00;;;19.10;99.90;;;;;;4941208;29;20897;-69
2022/05/26 10:46:43;;;;;;;1.73;0.90;;;19.00;99.90;;;;;;4941170;29;20470;-69
2022/05/26 10:49:18;;;;;;;1.67;1.03;;;19.00;99.90;;;;;;4941539;29;20487;-69
2022/05/26 10:51:51;;;;;;;2.20;1.20;;;19.10;99.90;;;;;;4940819;28;20468;-69
2022/05/26 10:54:27;;;;;;;2.57;0.70;;;19.10;99.90;;;;;;4941117;28;20431;-69
2022/05/26 10:57:05;;;;;;;3.30;0.80;;;19.10;99.90;;;;;;4941198;29;20443;-69
2022/05/26 10:59:38;;;;;;;2.43;1.33;;;19.10;99.90;;;;;;4942057;29;20441;-68
2022/05/26 11:02:14;;;;;;;1.63;1.00;;;19.00;99.90;;;;;;4941834;29;20846;-69
2022/05/26 11:04:48;;;;;;;5.80;0.90;;;18.90;99.90;;;;;;4940366;28;20754;-69
2022/05/26 11:07:21;;;;;;;2.07;0.90;;;18.80;99.90;;;;;;4941191;29;20444;-69
2022/05/26 11:09:53;;;;;;;1.00;0.60;;;18.80;99.90;;;;;;4941107;29;20734;-68
2022/05/26 11:12:29;;;;;;;7.40;2.60;;;18.80;99.90;;;;;;4940542;29;21138;-69
2022/05/26 11:17:54;;;;;;;3.17;0.80;;;19.10;99.90;;;;;;4940656;29;20451;-68
2022/05/26 11:20:29;;;;;;;2.13;0.90;;;19.30;99.90;;;;;;4939973;29;20440;-69
2022/05/26 11:23:02;;;;;;;3.37;1.33;;;19.50;99.90;;;;;;4940854;28;20591;-69
2022/05/26 11:25:33;;;;;;;4.73;1.00;;;19.70;99.90;;;;;;4940286;29;20449;-68
2022/05/26 11:28:08;;;;;;;1.10;0.40;;;19.70;99.90;;;;;;4940540;29;20602;-69
2022/05/26 11:36:42;;;;;;;1.80;1.00;;;19.30;99.90;;;;;;4940571;29;20831;-69
2022/05/26 11:39:19;;;;;;;4.83;0.80;;;19.30;99.90;;;;;;4941046;29;20446;-69
2022/05/26 11:41:50;;;;;;;5.20;0.93;;;19.30;99.90;;;;;;4941536;29;20555;-69
2022/05/26 11:44:33;;;;;;;3.23;0.93;;;19.40;99.90;;;;;;4940994;29;20509;-69
2022/05/26 11:47:33;;;;;;;2.30;0.90;;;19.30;99.90;;;;;;4940724;29;20730;-69
2022/05/26 11:50:31;;;;;;;3.67;1.10;;;19.20;99.90;;;;;;4940252;29;20476;-69
2022/05/26 11:53:13;;;;;;;1.43;0.53;;;19.10;99.90;;;;;;4941011;28;20487;-69
2022/05/26 11:55:53;;;;;;;3.87;1.40;;;19.10;99.90;;;;;;4940696;28;21002;-68
2022/05/26 11:58:34;;;;;;;1.10;0.70;;;18.90;99.90;;;;;;4940502;29;20546;-69
2022/05/26 12:01:34;;;;;;;2.80;0.60;;;18.80;99.90;;;;;;4940054;29;21056;-69
2022/05/26 12:04:15;;;;;;;0.93;0.60;;;18.70;99.90;;;;;;4939782;28;20495;-69
2022/05/26 12:06:59;;;;;;;2.53;0.80;;;18.70;99.90;;;;;;4939972;29;20450;-69
2022/05/26 12:09:33;;;;;;;4.23;0.80;;;18.70;99.90;;;;;;4940037;29;20447;-69
2022/05/26 12:12:03;;;;;;;3.33;1.20;;;18.70;99.90;;;;;;4940457;29;20483;-68
2022/05/26 12:14:33;;;;;;;4.03;0.83;;;18.70;99.90;;;;;;4939791;28;20487;-69
2022/05/26 12:17:25;;;;;;;3.43;1.70;;;18.70;99.90;;;;;;4943101;28;20446;-70
2022/05/26 12:19:53;;;;;;;2.83;1.27;;;18.70;99.90;;;;;;4944222;29;20451;-70
2022/05/26 12:22:25;;;;;;;2.03;0.80;;;18.70;99.90;;;;;;4944171;29;20463;-70
2022/05/26 12:25:16;;;;;;;2.80;2.00;;;18.60;99.90;;;;;;4944478;29;20519;-69
2022/05/26 12:28:27;;;;;;;5.30;1.60;;;18.40;99.90;;;;;;4944527;28;20998;-70
2022/05/26 12:31:06;;;;;;;5.93;1.50;;;18.20;99.90;;;;;;4910317;28;20757;-69
2022/05/26 12:34:13;;;;;;;1.63;0.87;;;18.20;99.90;;;;;;4943792;29;20561;-70
2022/05/26 12:36:53;;;;;;;2.07;1.20;;;18.20;99.90;;;;;;4943495;29;20453;-69
2022/05/26 12:40:00;;;;;;;3.33;0.93;;;18.10;99.90;;;;;;4944238;29;21111;-69
2022/05/26 12:42:58;;;;;;;4.73;1.60;;;18.00;99.90;;;;;;4941669;28;20613;-69
2022/05/26 12:45:49;;;;;;;5.37;0.73;;;18.00;99.90;;;;;;4942784;28;20596;-69
2022/05/26 12:48:40;;;;;;;3.43;0.80;;;17.80;99.90;;;;;;4943803;29;20427;-69
2022/05/26 12:51:11;;;;;;;4.47;1.07;;;17.80;99.90;;;;;;4943455;29;20462;-69
2022/05/26 12:53:49;;;;;;;2.10;1.37;;;17.90;99.90;;;;;;4943384;28;20488;-69
2022/05/26 12:56:24;;;;;;;3.83;0.80;;;18.00;99.90;;;;;;4944428;29;20715;-69
2022/05/26 12:58:57;;;;;;;6.60;1.70;;;18.10;99.90;;;;;;4944401;29;21121;-69
2022/05/26 13:01:35;;;;;;;3.40;0.80;;;18.40;99.90;;;;;;4942557;28;20472;-69
2022/05/26 13:04:06;;;;;;;2.80;1.10;;;18.70;99.90;;;;;;4943113;29;20683;-70
2022/05/26 13:06:37;;;;;;;3.70;0.80;;;18.90;99.90;;;;;;4943654;28;21042;-69
2022/05/26 13:09:12;;;;;;;5.27;1.50;;;19.30;99.90;;;;;;4943038;29;20640;-69
2022/05/26 13:11:48;;;;;;;2.73;0.90;;;19.40;99.90;;;;;;4943014;29;20470;-69
2022/05/26 13:14:30;;;;;;;3.00;1.37;;;19.40;99.90;;;;;;4944159;29;20487;-71
2022/05/26 13:16:59;;;;;;;8.30;1.40;;;19.40;99.90;;;;;;4943166;28;20703;-68
2022/05/26 13:19:27;;;;;;;4.10;1.37;;;19.20;99.90;;;;;;4943405;29;20447;-68
2022/05/26 13:21:57;;;;;;;1.10;0.80;;;19.00;99.90;;;;;;4943097;29;20526;-68
2022/05/26 13:24:28;;;;;;;5.93;2.10;;;18.80;99.90;;;;;;4943208;29;20981;-68
2022/05/26 13:27:01;;;;;;;1.83;1.10;;;18.70;99.90;;;;;;4943259;28;20521;-68
2022/05/26 13:29:31;;;;;;;3.80;1.10;;;18.50;99.90;;;;;;4942621;29;20447;-68
2022/05/26 13:34:47;;;;;;;3.93;1.03;;;18.20;99.90;;;;;;4943038;29;20474;-70
2022/05/26 13:37:19;;;;;;;4.50;1.27;;;18.20;99.90;;;;;;4942669;29;20439;-68
2022/05/26 13:40:05;;;;;;;3.87;0.93;;;18.40;99.90;;;;;;4942292;29;20922;-71
2022/05/26 13:42:36;;;;;;;5.07;1.00;;;18.60;99.90;;;;;;4943230;28;20757;-68
2022/05/26 13:45:06;;;;;;;2.60;0.93;;;18.70;99.90;;;;;;4942935;29;21038;-70
2022/05/26 13:47:38;;;;;;;4.37;0.97;;;18.80;99.90;;;;;;4942792;28;20453;-71
2022/05/26 13:50:09;;;;;;;3.80;1.17;;;18.80;99.90;;;;;;4942690;29;21006;-70
2022/05/26 13:52:39;;;;;;;2.07;0.97;;;18.60;99.90;;;;;;4943481;29;20461;-70
2022/05/26 13:55:19;;;;;;;2.03;1.00;;;18.40;99.90;;;;;;4942917;29;21078;-69